Cocos, Brazil
Current Conditions -  °F | °C
As of 5:00 PM on Wednesday 28 Jan 2015 (Local Time) from SBMK Reporting Station
Rain Showers Rain Showers  
Wind Chill: 91°   Ceiling: 8000
Heat Index: 91°   Visibility: 6mi
Dew Point: 55°   Wind: 8mph
Humidity: 29%   Direction: 110°ESE
Pressure: NA   Gusts: NA
Location:  14.18°S, 44.53°W
Report Text: SBMK 282000Z 11007KT 9999 VCSH SCT048 FEW055TCU BKN080 33/13 Q1013
Loading
Personal Weather Stations






























Interactive Weather Map New forecast layout! Learn more

10-Day Weather Forecast

Advertisements
Track Severe Weather on mobile